Time;durP1;ratioP1;P1;durP2;ratioP2;P2;SDS_P1;SDS_P2;PMS_P1;PMS_P2;Temp;Humidity;BMP_temperature;BMP_pressure;BME280_temperature;BME280_humidity;BME280_pressure;Samples;Min_cycle;Max_cycle;Signal;HPM_P1;HPM_P2
2021/06/04 00:01:18;;;;;;;24.42;10.05;;;;;;;;;;5076933;28;20480;-46
2021/06/04 00:03:44;;;;;;;17.00;8.77;;;;;;;;;;5077150;28;20109;-50
2021/06/04 00:06:11;;;;;;;19.02;7.55;;;;;;;;;;5076835;28;20491;-46
2021/06/04 00:08:38;;;;;;;24.20;11.18;;;;;;;;;;5076808;28;20150;-46
2021/06/04 00:11:24;;;;;;;14.73;7.40;;;;;;;;;;5076883;28;20097;-40
2021/06/04 00:13:54;;;;;;;13.95;7.68;;;;;;;;;;5076551;28;20456;-43
2021/06/04 00:16:27;;;;;;;13.50;7.25;;;;;;;;;;5076780;28;20100;-40
2021/06/04 00:18:56;;;;;;;14.57;6.25;;;;;;;;;;5076405;28;20499;-39
2021/06/04 00:21:26;;;;;;;13.32;6.00;;;;;;;;;;5076409;28;20516;-44
2021/06/04 00:23:53;;;;;;;15.77;7.30;;;;;;;;;;5076577;28;20029;-46
2021/06/04 00:26:19;;;;;;;16.95;6.38;;;;;;;;;;5076434;28;20040;-47
2021/06/04 00:28:46;;;;;;;12.30;5.95;;;;;;;;;;5076501;28;20016;-41
2021/06/04 00:31:12;;;;;;;10.77;5.93;;;;;;;;;;5076267;28;20083;-49
2021/06/04 00:33:38;;;;;;;13.35;5.88;;;;;;;;;;5076328;28;20389;-44
2021/06/04 00:36:08;;;;;;;12.80;6.45;;;;;;;;;;5076316;28;20036;-40
2021/06/04 00:38:34;;;;;;;13.75;6.85;;;;;;;;;;5076303;28;20017;-40
2021/06/04 00:41:02;;;;;;;12.50;6.80;;;;;;;;;;5076042;28;20052;-40
2021/06/04 00:43:28;;;;;;;13.25;6.43;;;;;;;;;;5076213;28;20099;-49
2021/06/04 00:45:56;;;;;;;11.00;6.30;;;;;;;;;;5076084;28;20094;-48
2021/06/04 00:48:23;;;;;;;17.60;9.43;;;;;;;;;;5075965;28;20028;-49
2021/06/04 00:50:59;;;;;;;18.35;11.40;;;;;;;;;;5076144;28;20037;-49
2021/06/04 00:53:25;;;;;;;13.23;8.57;;;;;;;;;;5076163;28;20044;-43
2021/06/04 00:55:52;;;;;;;13.18;6.90;;;;;;;;;;5076018;28;20433;-44
2021/06/04 00:58:21;;;;;;;22.20;9.65;;;;;;;;;;5074967;28;20032;-49
2021/06/04 01:00:50;;;;;;;14.90;7.32;;;;;;;;;;5075906;28;20048;-39
2021/06/04 01:03:19;;;;;;;12.25;6.68;;;;;;;;;;5075825;28;20032;-40
2021/06/04 01:05:45;;;;;;;11.73;7.93;;;;;;;;;;5075638;28;20024;-41
2021/06/04 01:08:11;;;;;;;12.10;6.60;;;;;;;;;;5075398;28;20115;-40
2021/06/04 01:10:46;;;;;;;19.27;12.73;;;;;;;;;;5075621;28;20480;-44
2021/06/04 01:13:12;;;;;;;31.77;14.70;;;;;;;;;;5075603;28;20028;-48
2021/06/04 01:15:41;;;;;;;18.15;10.18;;;;;;;;;;5075533;28;20029;-47
2021/06/04 01:18:26;;;;;;;54.10;10.00;;;;;;;;;;5075354;28;20021;-44
2021/06/04 01:20:54;;;;;;;20.10;8.93;;;;;;;;;;5075385;28;20028;-44
2021/06/04 01:23:35;;;;;;;14.48;7.55;;;;;;;;;;5075393;28;20033;-41
2021/06/04 01:26:09;;;;;;;23.27;11.05;;;;;;;;;;5075409;28;20149;-38
2021/06/04 01:28:46;;;;;;;20.10;10.85;;;;;;;;;;5075261;28;20085;-39
2021/06/04 01:31:18;;;;;;;20.10;11.70;;;;;;;;;;5075280;28;20046;-39
2021/06/04 01:33:44;;;;;;;17.45;9.07;;;;;;;;;;5075037;28;20024;-40
2021/06/04 01:36:10;;;;;;;16.27;8.80;;;;;;;;;;5075087;28;20464;-40
2021/06/04 01:38:40;;;;;;;13.38;7.60;;;;;;;;;;5075205;28;20025;-42
2021/06/04 01:41:09;;;;;;;16.00;8.68;;;;;;;;;;5074926;28;20059;-39
2021/06/04 01:43:41;;;;;;;14.45;9.00;;;;;;;;;;5075085;28;20025;-41
2021/06/04 01:46:10;;;;;;;17.67;9.40;;;;;;;;;;5074874;28;20032;-41
2021/06/04 01:48:37;;;;;;;15.63;9.48;;;;;;;;;;5074932;28;20473;-46
2021/06/04 01:51:24;;;;;;;15.55;8.73;;;;;;;;;;5074982;28;20044;-42
2021/06/04 01:53:53;;;;;;;16.55;8.57;;;;;;;;;;5074940;28;20412;-41
2021/06/04 01:56:47;;;;;;;16.80;10.15;;;;;;;;;;5074706;28;20052;-41
2021/06/04 01:59:29;;;;;;;18.60;11.13;;;;;;;;;;5071999;28;20636;-40
2021/06/04 02:01:55;;;;;;;23.92;15.43;;;;;;;;;;5074979;28;20555;-40
2021/06/04 02:04:35;;;;;;;31.67;17.35;;;;;;;;;;5074702;28;20052;-40
2021/06/04 02:07:01;;;;;;;30.95;16.38;;;;;;;;;;5074602;28;20078;-40
2021/06/04 02:09:28;;;;;;;31.02;18.15;;;;;;;;;;5074421;28;20099;-41
2021/06/04 02:11:55;;;;;;;22.85;11.90;;;;;;;;;;5074577;28;20028;-40
2021/06/04 02:14:24;;;;;;;15.23;8.88;;;;;;;;;;5074864;28;20025;-40
2021/06/04 02:16:50;;;;;;;16.20;10.73;;;;;;;;;;5074620;28;20035;-40
2021/06/04 02:19:25;;;;;;;16.98;10.23;;;;;;;;;;5074600;28;20469;-41
2021/06/04 02:21:54;;;;;;;18.67;10.63;;;;;;;;;;5074149;28;20112;-44
2021/06/04 02:24:34;;;;;;;18.55;9.23;;;;;;;;;;5074206;28;20107;-43
2021/06/04 02:27:02;;;;;;;13.25;7.97;;;;;;;;;;5074266;28;20030;-42
2021/06/04 02:29:51;;;;;;;18.35;8.82;;;;;;;;;;5074453;28;20056;-44
2021/06/04 02:32:28;;;;;;;11.68;7.55;;;;;;;;;;5074262;28;20103;-42
2021/06/04 02:34:59;;;;;;;14.25;7.38;;;;;;;;;;5074416;28;20443;-44
2021/06/04 02:37:27;;;;;;;;;;;;;;;;;;5074661;28;20075;-41
2021/06/04 02:39:57;;;;;;;14.05;7.43;;;;;;;;;;5073971;28;19905;-44
2021/06/04 02:42:26;;;;;;;17.38;8.23;;;;;;;;;;5074518;28;20029;-41
2021/06/04 02:44:54;;;;;;;16.02;8.18;;;;;;;;;;5055280;28;20032;-40
2021/06/04 02:47:26;;;;;;;16.20;8.30;;;;;;;;;;5074012;28;20050;-43
2021/06/04 02:49:52;;;;;;;20.33;8.48;;;;;;;;;;5073996;28;20055;-43
2021/06/04 02:52:27;;;;;;;16.38;8.57;;;;;;;;;;5073726;28;20052;-41
2021/06/04 02:54:53;;;;;;;15.23;8.75;;;;;;;;;;5073946;28;20077;-40
2021/06/04 02:57:21;;;;;;;14.18;8.63;;;;;;;;;;5073811;28;20361;-40
2021/06/04 02:59:48;;;;;;;18.48;8.38;;;;;;;;;;5073630;28;20028;-42
2021/06/04 03:02:26;;;;;;;21.52;8.43;;;;;;;;;;5073813;28;20047;-41
2021/06/04 03:04:55;;;;;;;16.98;7.38;;;;;;;;;;5073719;28;20109;-44
2021/06/04 03:07:23;;;;;;;14.50;8.02;;;;;;;;;;5073709;28;20036;-44
2021/06/04 03:09:49;;;;;;;24.23;8.10;;;;;;;;;;5073495;28;20029;-45
2021/06/04 03:12:18;;;;;;;22.67;7.82;;;;;;;;;;5055605;28;20423;-47
2021/06/04 03:14:46;;;;;;;19.73;8.90;;;;;;;;;;5073820;28;20017;-42
2021/06/04 03:17:13;;;;;;;12.80;7.40;;;;;;;;;;5073568;28;20020;-47
2021/06/04 03:19:40;;;;;;;8.93;6.65;;;;;;;;;;5073412;28;20031;-46
2021/06/04 03:22:14;;;;;;;12.23;6.55;;;;;;;;;;5072592;28;20041;-40
2021/06/04 03:24:42;;;;;;;11.50;6.65;;;;;;;;;;5073541;28;20020;-48
2021/06/04 03:27:09;;;;;;;15.38;6.07;;;;;;;;;;5073216;28;20141;-46
2021/06/04 03:29:35;;;;;;;9.27;5.75;;;;;;;;;;5073456;28;20047;-44
2021/06/04 03:32:04;;;;;;;11.18;6.72;;;;;;;;;;5073536;28;20028;-45
2021/06/04 03:34:31;;;;;;;14.68;6.57;;;;;;;;;;5073251;28;20021;-46
2021/06/04 03:36:58;;;;;;;12.45;6.25;;;;;;;;;;5073556;28;20037;-47
2021/06/04 03:39:27;;;;;;;16.38;6.45;;;;;;;;;;5073385;28;20024;-47
2021/06/04 03:41:53;;;;;;;16.10;5.60;;;;;;;;;;5073128;28;20028;-42
2021/06/04 03:44:21;;;;;;;8.68;4.97;;;;;;;;;;5073092;28;20546;-45
2021/06/04 03:46:47;;;;;;;12.93;5.15;;;;;;;;;;5073346;28;20362;-46
2021/06/04 03:49:14;;;;;;;15.85;5.70;;;;;;;;;;5073181;28;20029;-46
2021/06/04 03:51:42;;;;;;;8.80;5.65;;;;;;;;;;5072929;28;20052;-47
2021/06/04 03:54:09;;;;;;;15.68;6.07;;;;;;;;;;5073355;28;20386;-43
2021/06/04 03:56:36;;;;;;;11.50;5.68;;;;;;;;;;5072935;28;20025;-46
2021/06/04 03:59:03;;;;;;;11.82;5.70;;;;;;;;;;5073325;28;20047;-44
2021/06/04 04:01:31;;;;;;;11.32;5.55;;;;;;;;;;5073057;28;20021;-40
2021/06/04 04:03:58;;;;;;;10.48;5.32;;;;;;;;;;5073034;28;20056;-45
2021/06/04 04:06:24;;;;;;;9.65;5.10;;;;;;;;;;5072821;28;20035;-39
2021/06/04 04:08:50;;;;;;;10.40;5.13;;;;;;;;;;5072946;28;20029;-47
2021/06/04 04:11:17;;;;;;;11.98;5.28;;;;;;;;;;5072801;28;20085;-46
2021/06/04 04:13:43;;;;;;;8.77;4.93;;;;;;;;;;5073258;28;20089;-42
2021/06/04 04:16:09;;;;;;;15.73;5.03;;;;;;;;;;5073096;28;20040;-45
2021/06/04 04:18:35;;;;;;;13.80;4.85;;;;;;;;;;5072768;28;20365;-38
2021/06/04 04:21:03;;;;;;;9.55;4.30;;;;;;;;;;5072673;28;20029;-40
2021/06/04 04:23:36;;;;;;;11.95;5.25;;;;;;;;;;5073143;28;20469;-45
2021/06/04 04:26:02;;;;;;;14.90;5.80;;;;;;;;;;5073220;28;20028;-46
2021/06/04 04:28:32;;;;;;;13.45;5.40;;;;;;;;;;5072671;28;20076;-45
2021/06/04 04:30:59;;;;;;;11.50;6.13;;;;;;;;;;5072716;28;20017;-44
2021/06/04 04:33:28;;;;;;;12.02;5.15;;;;;;;;;;5074948;28;20529;-40
2021/06/04 04:35:54;;;;;;;12.05;4.70;;;;;;;;;;5076395;28;20408;-46
2021/06/04 04:38:21;;;;;;;14.70;5.50;;;;;;;;;;5076275;28;20020;-40
2021/06/04 04:40:47;;;;;;;12.00;4.55;;;;;;;;;;5076410;28;20020;-40
2021/06/04 04:43:14;;;;;;;9.35;4.72;;;;;;;;;;5076084;28;20495;-40
2021/06/04 04:45:41;;;;;;;13.00;5.93;;;;;;;;;;5076146;28;20033;-41
2021/06/04 04:48:08;;;;;;;11.00;4.75;;;;;;;;;;5076091;28;20063;-40
2021/06/04 04:50:35;;;;;;;7.60;4.10;;;;;;;;;;5075965;28;20032;-41
2021/06/04 04:53:01;;;;;;;12.07;4.93;;;;;;;;;;5075774;28;20064;-45
2021/06/04 04:55:29;;;;;;;7.70;4.00;;;;;;;;;;5075942;28;20025;-40
2021/06/04 04:57:57;;;;;;;18.08;5.22;;;;;;;;;;5076012;28;20174;-41
2021/06/04 05:00:25;;;;;;;9.55;4.18;;;;;;;;;;5075915;28;20028;-45
2021/06/04 05:02:52;;;;;;;10.30;4.53;;;;;;;;;;5075719;28;20477;-42
2021/06/04 05:05:18;;;;;;;11.00;4.63;;;;;;;;;;5075669;28;20032;-45
2021/06/04 05:07:44;;;;;;;19.52;7.35;;;;;;;;;;5075633;28;20488;-42
2021/06/04 05:10:11;;;;;;;14.85;6.20;;;;;;;;;;5075710;28;20035;-42
2021/06/04 05:12:37;;;;;;;8.85;6.10;;;;;;;;;;5075683;28;20024;-42
2021/06/04 05:15:12;;;;;;;8.85;4.38;;;;;;;;;;5075577;28;20455;-43
2021/06/04 05:17:38;;;;;;;21.55;13.35;;;;;;;;;;5075543;28;20033;-41
2021/06/04 05:20:04;;;;;;;29.90;16.27;;;;;;;;;;5075356;28;20056;-40
2021/06/04 05:22:31;;;;;;;27.70;12.20;;;;;;;;;;5075422;28;20104;-41
2021/06/04 05:24:57;;;;;;;20.05;9.98;;;;;;;;;;5075402;28;20020;-44
2021/06/04 05:27:23;;;;;;;11.02;4.53;;;;;;;;;;5075289;28;20051;-41
2021/06/04 05:29:49;;;;;;;12.43;6.97;;;;;;;;;;5075513;28;20025;-42
2021/06/04 05:32:17;;;;;;;11.77;5.97;;;;;;;;;;5075538;28;20025;-46
2021/06/04 05:34:43;;;;;;;10.00;3.80;;;;;;;;;;5075523;28;20488;-48
2021/06/04 05:37:10;;;;;;;15.10;5.55;;;;;;;;;;5075133;28;20032;-44
2021/06/04 05:39:36;;;;;;;11.23;4.45;;;;;;;;;;5075221;28;20031;-42
2021/06/04 05:42:04;;;;;;;11.07;4.60;;;;;;;;;;5075327;28;20379;-43
2021/06/04 05:44:31;;;;;;;23.75;12.18;;;;;;;;;;5074405;28;20060;-42
2021/06/04 05:47:00;;;;;;;17.73;8.30;;;;;;;;;;5075213;28;20024;-41
2021/06/04 05:49:27;;;;;;;22.65;13.13;;;;;;;;;;5074886;28;20021;-41
2021/06/04 05:51:53;;;;;;;22.42;8.50;;;;;;;;;;5074701;28;20049;-42
2021/06/04 05:54:20;;;;;;;11.65;6.13;;;;;;;;;;5074689;28;20029;-42
2021/06/04 05:56:46;;;;;;;14.30;5.32;;;;;;;;;;5074913;28;20032;-42
2021/06/04 05:59:13;;;;;;;18.60;9.18;;;;;;;;;;5074842;28;20100;-43
2021/06/04 06:01:39;;;;;;;16.15;7.18;;;;;;;;;;5074959;28;20016;-41
2021/06/04 06:04:06;;;;;;;21.48;12.15;;;;;;;;;;5074995;28;20024;-41
2021/06/04 06:06:33;;;;;;;30.27;17.75;;;;;;;;;;5074394;28;20027;-42
2021/06/04 06:08:59;;;;;;;31.17;17.80;;;;;;;;;;5074973;28;20025;-43
2021/06/04 06:11:26;;;;;;;19.52;9.18;;;;;;;;;;5074635;28;20438;-42
2021/06/04 06:13:52;;;;;;;28.23;17.90;;;;;;;;;;5074628;28;20033;-42
2021/06/04 06:16:19;;;;;;;7.75;4.30;;;;;;;;;;5074485;28;20032;-42
2021/06/04 06:18:45;;;;;;;22.15;12.18;;;;;;;;;;5074325;28;20024;-42
2021/06/04 06:21:11;;;;;;;30.13;19.65;;;;;;;;;;5074160;28;20028;-46
2021/06/04 06:23:38;;;;;;;34.03;14.48;;;;;;;;;;5074374;28;20081;-45
2021/06/04 06:26:06;;;;;;;6.90;3.30;;;;;;;;;;5074282;28;20055;-45
2021/06/04 06:28:34;;;;;;;14.70;8.38;;;;;;;;;;5074070;28;20032;-44
2021/06/04 06:31:01;;;;;;;21.60;6.88;;;;;;;;;;5073991;28;20376;-45
2021/06/04 06:33:27;;;;;;;17.83;9.05;;;;;;;;;;5074113;28;20028;-42
2021/06/04 06:36:00;;;;;;;20.25;10.32;;;;;;;;;;5074044;28;20020;-45
2021/06/04 06:38:27;;;;;;;16.65;10.68;;;;;;;;;;5074160;28;20036;-42
2021/06/04 06:40:54;;;;;;;12.10;6.07;;;;;;;;;;5073992;28;20075;-43
2021/06/04 06:43:22;;;;;;;15.32;8.43;;;;;;;;;;5074179;28;20066;-44
2021/06/04 06:45:48;;;;;;;14.70;5.15;;;;;;;;;;5073947;28;20032;-45
2021/06/04 06:48:14;;;;;;;9.10;4.25;;;;;;;;;;5074201;28;20086;-46
2021/06/04 06:50:41;;;;;;;14.23;5.20;;;;;;;;;;5073671;28;20116;-46
2021/06/04 06:53:08;;;;;;;11.27;6.78;;;;;;;;;;5073594;28;20514;-43
2021/06/04 06:55:35;;;;;;;8.45;3.60;;;;;;;;;;5073332;28;20021;-44
2021/06/04 06:58:01;;;;;;;10.07;3.50;;;;;;;;;;5073446;28;20028;-47
2021/06/04 07:00:29;;;;;;;48.40;20.30;;;;;;;;;;5073706;28;20017;-43
2021/06/04 07:02:56;;;;;;;9.90;5.20;;;;;;;;;;5073520;28;20384;-44
2021/06/04 07:05:22;;;;;;;8.30;4.03;;;;;;;;;;5054763;28;20032;-42
2021/06/04 07:07:48;;;;;;;34.80;18.75;;;;;;;;;;5072823;28;20069;-44
2021/06/04 07:10:15;;;;;;;21.38;14.65;;;;;;;;;;5072719;28;20020;-45
2021/06/04 07:12:41;;;;;;;38.55;26.63;;;;;;;;;;5072648;28;20484;-43
2021/06/04 07:15:08;;;;;;;10.38;5.88;;;;;;;;;;5072782;28;20035;-42
2021/06/04 07:17:34;;;;;;;29.30;16.05;;;;;;;;;;5072160;28;20119;-41
2021/06/04 07:20:01;;;;;;;6.25;2.88;;;;;;;;;;5071790;28;20070;-40
2021/06/04 07:22:30;;;;;;;60.67;8.80;;;;;;;;;;5071982;28;20024;-42
2021/06/04 07:24:56;;;;;;;22.35;12.82;;;;;;;;;;5070526;28;20013;-42
2021/06/04 07:27:22;;;;;;;11.27;6.13;;;;;;;;;;5071342;28;20115;-42
2021/06/04 07:29:51;;;;;;;12.75;6.40;;;;;;;;;;5071857;28;20052;-43
2021/06/04 07:32:17;;;;;;;4.22;2.55;;;;;;;;;;5071823;28;20020;-41
2021/06/04 07:34:43;;;;;;;19.05;6.95;;;;;;;;;;5071684;28;20044;-42
2021/06/04 07:37:09;;;;;;;19.02;10.77;;;;;;;;;;5072078;28;20380;-41
2021/06/04 07:39:38;;;;;;;10.63;3.10;;;;;;;;;;5071498;28;20020;-42
2021/06/04 07:42:06;;;;;;;14.18;3.28;;;;;;;;;;5071770;28;20070;-43
2021/06/04 07:44:32;;;;;;;7.18;3.13;;;;;;;;;;5071887;28;20078;-45
2021/06/04 07:46:59;;;;;;;14.70;6.00;;;;;;;;;;5071596;28;20535;-45
2021/06/04 07:49:26;;;;;;;10.38;2.30;;;;;;;;;;5051867;28;20064;-42
2021/06/04 07:51:55;;;;;;;5.35;2.50;;;;;;;;;;5069062;28;20045;-44
2021/06/04 07:54:22;;;;;;;10.68;2.55;;;;;;;;;;5071634;28;20032;-41
2021/06/04 07:56:48;;;;;;;11.10;2.90;;;;;;;;;;5069011;28;20021;-43
2021/06/04 07:59:15;;;;;;;4.40;2.10;;;;;;;;;;5070612;28;20028;-43
2021/06/04 08:01:42;;;;;;;5.65;1.77;;;;;;;;;;5071688;28;20033;-45
2021/06/04 08:04:08;;;;;;;6.63;2.30;;;;;;;;;;5071497;28;20514;-45
2021/06/04 08:06:35;;;;;;;5.20;2.33;;;;;;;;;;5071176;28;20064;-43
2021/06/04 08:09:01;;;;;;;5.50;2.22;;;;;;;;;;5074656;28;20111;-44
2021/06/04 08:11:29;;;;;;;7.93;2.30;;;;;;;;;;5072800;28;20024;-43
2021/06/04 08:13:56;;;;;;;5.82;1.70;;;;;;;;;;5072901;28;20422;-41
2021/06/04 08:16:23;;;;;;;7.63;2.13;;;;;;;;;;5076122;28;20016;-41
2021/06/04 08:18:49;;;;;;;43.28;32.70;;;;;;;;;;5075968;28;20028;-44
2021/06/04 08:21:21;;;;;;;15.25;6.00;;;;;;;;;;5076243;28;20040;-44
2021/06/04 08:23:47;;;;;;;3.92;2.15;;;;;;;;;;5076066;28;20032;-43
2021/06/04 08:26:16;;;;;;;16.45;6.60;;;;;;;;;;5076341;28;20039;-42
2021/06/04 08:28:43;;;;;;;4.32;2.03;;;;;;;;;;5076474;28;20029;-43
2021/06/04 08:31:09;;;;;;;6.68;1.83;;;;;;;;;;5075944;28;20021;-40
2021/06/04 08:33:39;;;;;;;6.30;3.75;;;;;;;;;;5076006;28;20071;-42
2021/06/04 08:36:08;;;;;;;5.95;3.20;;;;;;;;;;5076153;28;20044;-40
2021/06/04 08:38:35;;;;;;;6.82;3.63;;;;;;;;;;5076180;28;20070;-41
2021/06/04 08:41:07;;;;;;;13.38;5.07;;;;;;;;;;5076212;28;20035;-41
2021/06/04 08:43:33;;;;;;;85.32;59.55;;;;;;;;;;5057808;28;20039;-42
2021/06/04 08:46:20;;;;;;;14.10;6.72;;;;;;;;;;5076043;28;20024;-41
2021/06/04 08:48:48;;;;;;;14.27;7.53;;;;;;;;;;5075970;28;20032;-46
2021/06/04 08:51:21;;;;;;;11.82;8.70;;;;;;;;;;5057665;28;20060;-42
2021/06/04 08:54:05;;;;;;;15.05;10.68;;;;;;;;;;5076072;28;20047;-46
2021/06/04 08:56:34;;;;;;;26.23;16.88;;;;;;;;;;5075868;28;20115;-44
2021/06/04 08:59:04;;;;;;;5.93;3.30;;;;;;;;;;5075773;28;20021;-48
2021/06/04 09:01:47;;;;;;;7.53;3.80;;;;;;;;;;5075800;28;20021;-48
2021/06/04 09:04:13;;;;;;;11.50;8.23;;;;;;;;;;5075796;28;20052;-44
2021/06/04 09:06:41;;;;;;;12.25;8.23;;;;;;;;;;5075690;28;20028;-47
2021/06/04 09:09:18;;;;;;;7.82;5.25;;;;;;;;;;5075530;28;20082;-44
2021/06/04 09:11:44;;;;;;;10.63;4.55;;;;;;;;;;5075491;28;20502;-45
2021/06/04 09:14:10;;;;;;;5.15;2.10;;;;;;;;;;5075514;28;20032;-47
2021/06/04 09:16:45;;;;;;;13.70;7.25;;;;;;;;;;5075748;28;20070;-46
2021/06/04 09:19:11;;;;;;;12.93;5.07;;;;;;;;;;5074411;28;20036;-43
2021/06/04 09:21:41;;;;;;;8.00;4.57;;;;;;;;;;5075349;28;20038;-47
2021/06/04 09:24:09;;;;;;;9.32;5.05;;;;;;;;;;5075256;28;20452;-45
2021/06/04 09:26:36;;;;;;;6.95;4.57;;;;;;;;;;5075331;28;20025;-47
2021/06/04 09:29:02;;;;;;;7.65;2.78;;;;;;;;;;5075258;28;20039;-43
2021/06/04 09:31:34;;;;;;;4.68;1.80;;;;;;;;;;5075290;28;20115;-46
2021/06/04 09:34:11;;;;;;;2.92;1.50;;;;;;;;;;5075213;28;20465;-45
2021/06/04 09:36:43;;;;;;;75.88;33.60;;;;;;;;;;5075143;28;20113;-44
2021/06/04 09:39:09;;;;;;;7.60;4.63;;;;;;;;;;5075028;28;20028;-43
2021/06/04 09:41:43;;;;;;;34.90;12.30;;;;;;;;;;5075203;28;20358;-43
2021/06/04 09:44:21;;;;;;;12.02;5.65;;;;;;;;;;5075034;28;20052;-47
2021/06/04 09:47:12;;;;;;;4.03;2.08;;;;;;;;;;5074908;28;20036;-44
2021/06/04 09:49:43;;;;;;;7.38;2.10;;;;;;;;;;5075178;28;20686;-46
2021/06/04 09:52:27;;;;;;;3.38;1.70;;;;;;;;;;5074699;28;20044;-41
2021/06/04 09:55:12;;;;;;;5.72;2.08;;;;;;;;;;5074809;28;20020;-45
2021/06/04 09:57:54;;;;;;;7.68;1.80;;;;;;;;;;5074897;28;20493;-47
2021/06/04 10:00:24;;;;;;;2.60;1.58;;;;;;;;;;5074838;28;20477;-46
2021/06/04 10:02:51;;;;;;;3.67;1.83;;;;;;;;;;5074793;28;20035;-45
2021/06/04 10:05:26;;;;;;;6.47;2.45;;;;;;;;;;5074527;28;20028;-43
2021/06/04 10:08:03;;;;;;;4.13;1.95;;;;;;;;;;5074554;28;20404;-43
2021/06/04 10:10:32;;;;;;;11.32;2.40;;;;;;;;;;5074583;28;20149;-44
2021/06/04 10:13:03;;;;;;;6.95;2.20;;;;;;;;;;5074546;28;20024;-43
2021/06/04 10:15:37;;;;;;;3.97;1.40;;;;;;;;;;5074488;28;20472;-43
2021/06/04 10:18:23;;;;;;;13.05;2.05;;;;;;;;;;5074404;28;20395;-43
2021/06/04 10:20:49;;;;;;;4.57;1.92;;;;;;;;;;5074012;28;20028;-43
2021/06/04 10:23:15;;;;;;;6.50;1.88;;;;;;;;;;5074290;28;20025;-46
2021/06/04 10:25:49;;;;;;;6.00;1.90;;;;;;;;;;5074155;28;20107;-43
2021/06/04 10:28:31;;;;;;;5.65;1.98;;;;;;;;;;5074132;28;20389;-41
2021/06/04 10:31:32;;;;;;;57.42;45.47;;;;;;;;;;5073699;28;20209;-41
2021/06/04 10:34:02;;;;;;;82.80;64.63;;;;;;;;;;5012388;28;20041;-42
2021/06/04 10:36:31;;;;;;;36.95;25.35;;;;;;;;;;5012152;28;20038;-41
2021/06/04 10:39:00;;;;;;;8.00;2.25;;;;;;;;;;5012198;28;20108;-44
2021/06/04 10:41:44;;;;;;;2.10;1.45;;;;;;;;;;5012100;28;20049;-41
2021/06/04 10:44:13;;;;;;;9.70;8.55;;;;;;;;;;5011974;28;20022;-46
2021/06/04 10:46:53;;;;;;;6.38;1.60;;;;;;;;;;5011988;28;20026;-48
2021/06/04 10:49:38;;;;;;;65.80;51.03;;;;;;;;;;5011960;28;20057;-47
2021/06/04 10:52:22;;;;;;;12.65;8.75;;;;;;;;;;5011760;28;20053;-44
2021/06/04 10:55:02;;;;;;;5.53;3.47;;;;;;;;;;5011956;28;20053;-47
2021/06/04 10:57:43;;;;;;;4.00;2.27;;;;;;;;;;5011747;28;20540;-45
2021/06/04 11:00:11;;;;;;;5.07;1.80;;;;;;;;;;5011639;28;20045;-43
2021/06/04 11:02:37;;;;;;;4.10;1.90;;;;;;;;;;5011567;28;20434;-43
2021/06/04 11:05:11;;;;;;;4.95;2.63;;;;;;;;;;5011605;28;20022;-43
2021/06/04 11:07:40;;;;;;;3.72;2.65;;;;;;;;;;5027127;28;20068;-46
2021/06/04 11:10:11;;;;;;;4.65;1.98;;;;;;;;;;5053477;28;20028;-44
2021/06/04 11:12:56;;;;;;;7.95;2.88;;;;;;;;;;5053609;28;20028;-43
2021/06/04 11:15:22;;;;;;;16.15;9.35;;;;;;;;;;5053346;28;20114;-44
2021/06/04 11:17:50;;;;;;;6.80;2.67;;;;;;;;;;5053499;28;20120;-43
2021/06/04 11:20:31;;;;;;;10.52;5.85;;;;;;;;;;5053289;28;20029;-42
2021/06/04 11:23:02;;;;;;;6.50;2.65;;;;;;;;;;5034923;28;20039;-47
2021/06/04 11:25:31;;;;;;;15.35;10.93;;;;;;;;;;5053313;28;20036;-43
2021/06/04 11:28:08;;;;;;;6.03;2.90;;;;;;;;;;5052996;28;20044;-46
2021/06/04 11:30:36;;;;;;;10.55;6.88;;;;;;;;;;5053288;28;20025;-42
2021/06/04 11:33:10;;;;;;;17.10;12.52;;;;;;;;;;5053032;28;20029;-42
2021/06/04 11:35:42;;;;;;;7.05;3.42;;;;;;;;;;5053117;28;20078;-42
2021/06/04 11:38:16;;;;;;;13.60;7.90;;;;;;;;;;5052979;28;20029;-42
2021/06/04 11:40:47;;;;;;;44.95;29.27;;;;;;;;;;5053147;28;20066;-46
2021/06/04 11:43:13;;;;;;;14.95;7.70;;;;;;;;;;5060450;28;20099;-43
2021/06/04 11:45:40;;;;;;;9.75;3.83;;;;;;;;;;5079810;28;20016;-42
2021/06/04 11:48:21;;;;;;;32.63;23.15;;;;;;;;;;5079630;28;20481;-40
2021/06/04 11:50:48;;;;;;;6.80;2.97;;;;;;;;;;5079695;28;20376;-44
2021/06/04 11:53:14;;;;;;;2.55;1.73;;;;;;;;;;5079364;28;20404;-43
2021/06/04 11:55:40;;;;;;;48.38;4.35;;;;;;;;;;5079686;28;20051;-41
2021/06/04 11:58:39;;;;;;;13.73;2.53;;;;;;;;;;5079135;28;20033;-48
2021/06/04 12:01:16;;;;;;;14.63;3.87;;;;;;;;;;5079154;28;20025;-43
2021/06/04 12:04:06;;;;;;;3.33;2.25;;;;;;;;;;5076405;28;20257;-42
2021/06/04 12:06:53;;;;;;;5.55;2.17;;;;;;;;;;5069129;28;20056;-42
2021/06/04 12:09:32;;;;;;;44.75;30.77;;;;;;;;;;5078139;28;20082;-42
2021/06/04 12:12:16;;;;;;;12.23;7.20;;;;;;;;;;5076693;28;20020;-45
2021/06/04 12:14:55;;;;;;;21.50;15.02;;;;;;;;;;5061426;28;20396;-41
2021/06/04 12:17:26;;;;;;;21.70;15.70;;;;;;;;;;5079369;28;20036;-42
2021/06/04 12:20:11;;;;;;;25.75;17.55;;;;;;;;;;5079310;28;20036;-41
2021/06/04 12:22:40;;;;;;;16.20;9.07;;;;;;;;;;5079336;28;20040;-43
2021/06/04 12:25:09;;;;;;;14.95;3.67;;;;;;;;;;5079267;28;20141;-43
2021/06/04 12:27:37;;;;;;;37.22;30.10;;;;;;;;;;5061360;28;20032;-46
2021/06/04 12:30:04;;;;;;;7.55;3.88;;;;;;;;;;5079205;28;20024;-46
2021/06/04 12:32:34;;;;;;;62.05;42.35;;;;;;;;;;5079222;28;20067;-43
2021/06/04 12:35:01;;;;;;;12.05;6.65;;;;;;;;;;5079179;28;20476;-43
2021/06/04 12:37:30;;;;;;;38.67;30.00;;;;;;;;;;5079068;28;20024;-47
2021/06/04 12:39:58;;;;;;;37.92;27.67;;;;;;;;;;5079137;28;20016;-46
2021/06/04 12:42:24;;;;;;;18.67;9.95;;;;;;;;;;5079274;28;20016;-44
2021/06/04 12:44:53;;;;;;;32.60;23.02;;;;;;;;;;5079180;28;20023;-42
2021/06/04 12:47:21;;;;;;;8.15;5.60;;;;;;;;;;5079299;28;20029;-46
2021/06/04 12:49:47;;;;;;;30.92;23.58;;;;;;;;;;5079119;28;20052;-49
2021/06/04 12:52:17;;;;;;;15.02;10.80;;;;;;;;;;5079130;28;20101;-49
2021/06/04 12:54:43;;;;;;;19.60;13.73;;;;;;;;;;5076683;28;20089;-42
2021/06/04 12:57:23;;;;;;;35.50;25.90;;;;;;;;;;5076061;28;20029;-47
2021/06/04 12:59:51;;;;;;;27.40;16.95;;;;;;;;;;5075929;28;20024;-41
2021/06/04 13:02:18;;;;;;;49.78;38.45;;;;;;;;;;5075966;28;20028;-45
2021/06/04 13:04:46;;;;;;;36.13;20.80;;;;;;;;;;5075894;28;20096;-42
2021/06/04 13:07:26;;;;;;;49.65;38.90;;;;;;;;;;5075703;28;20423;-40
2021/06/04 13:10:24;;;;;;;46.75;35.38;;;;;;;;;;5075746;28;20107;-44
2021/06/04 13:12:56;;;;;;;117.50;90.07;;;;;;;;;;4994410;28;20034;-47
2021/06/04 13:15:28;;;;;;;12.23;9.23;;;;;;;;;;4994333;28;20041;-44
2021/06/04 13:18:00;;;;;;;15.63;10.93;;;;;;;;;;4994426;28;20459;-43
2021/06/04 13:20:33;;;;;;;50.58;39.67;;;;;;;;;;4994052;28;20181;-48
2021/06/04 13:23:11;;;;;;;20.17;13.38;;;;;;;;;;4994188;28;20129;-46
2021/06/04 13:25:38;;;;;;;24.50;19.88;;;;;;;;;;4993967;28;20093;-43
2021/06/04 13:28:16;;;;;;;317.30;243.57;;;;;;;;;;4993733;28;20409;-44
2021/06/04 13:30:45;;;;;;;18.73;10.82;;;;;;;;;;4993967;28;20519;-42
2021/06/04 13:33:16;;;;;;;9.85;4.30;;;;;;;;;;4993846;28;20382;-43
2021/06/04 13:35:46;;;;;;;12.38;7.35;;;;;;;;;;4993749;28;20030;-46
2021/06/04 13:38:20;;;;;;;35.35;26.35;;;;;;;;;;4993862;28;20042;-47
2021/06/04 13:40:46;;;;;;;10.93;4.90;;;;;;;;;;4993093;28;20121;-40
2021/06/04 13:43:30;;;;;;;18.85;14.10;;;;;;;;;;4993167;28;20026;-44
2021/06/04 13:45:56;;;;;;;16.52;12.00;;;;;;;;;;4991447;28;20050;-50
2021/06/04 13:48:34;;;;;;;40.55;27.48;;;;;;;;;;5031533;28;20050;-46
2021/06/04 13:51:04;;;;;;;19.00;10.63;;;;;;;;;;5072874;28;20036;-48
2021/06/04 13:53:36;;;;;;;15.98;10.38;;;;;;;;;;5071889;28;20103;-47
2021/06/04 13:56:08;;;;;;;53.05;35.80;;;;;;;;;;5074534;28;20096;-46
2021/06/04 13:58:35;;;;;;;13.05;8.10;;;;;;;;;;5072441;28;20024;-44
2021/06/04 14:01:19;;;;;;;4.60;2.42;;;;;;;;;;5074285;28;20461;-47
2021/06/04 14:03:51;;;;;;;2.13;1.85;;;;;;;;;;5073677;28;20107;-46
2021/06/04 14:06:19;;;;;;;11.80;7.60;;;;;;;;;;5073428;28;20023;-45
2021/06/04 14:08:57;;;;;;;8.27;4.38;;;;;;;;;;5073874;28;20082;-46
2021/06/04 14:11:23;;;;;;;7.82;2.17;;;;;;;;;;5074001;28;20050;-48
2021/06/04 14:13:49;;;;;;;5.30;2.10;;;;;;;;;;5071341;28;20025;-50
2021/06/04 14:16:35;;;;;;;4.03;2.97;;;;;;;;;;5074117;28;20017;-48
2021/06/04 14:19:01;;;;;;;11.00;8.52;;;;;;;;;;5072674;28;20028;-45
2021/06/04 14:21:27;;;;;;;69.60;48.05;;;;;;;;;;5073542;28;20385;-41
2021/06/04 14:24:01;;;;;;;50.28;36.63;;;;;;;;;;5071957;28;20465;-44
2021/06/04 14:26:38;;;;;;;17.98;10.60;;;;;;;;;;5072565;28;20035;-43
2021/06/04 14:29:16;;;;;;;6.18;1.88;;;;;;;;;;5072024;28;20036;-47
2021/06/04 14:31:48;;;;;;;6.18;1.90;;;;;;;;;;5071880;28;20062;-43
2021/06/04 14:34:15;;;;;;;5.90;1.60;;;;;;;;;;5073581;28;20028;-42
2021/06/04 14:36:41;;;;;;;3.97;1.30;;;;;;;;;;5073507;28;20025;-42
2021/06/04 14:39:26;;;;;;;11.23;3.45;;;;;;;;;;5073209;28;20020;-43
2021/06/04 14:41:52;;;;;;;8.52;4.40;;;;;;;;;;5072044;28;20027;-44
2021/06/04 14:44:19;;;;;;;7.38;2.53;;;;;;;;;;5073434;28;20411;-43
2021/06/04 14:46:49;;;;;;;16.90;10.15;;;;;;;;;;5072852;28;20023;-42
2021/06/04 14:49:15;;;;;;;12.88;6.68;;;;;;;;;;5072797;28;20046;-43